createdAt,value
2023-04-29T00:00:54.765Z,15.07
2023-04-29T00:05:56.414Z,17.77
2023-04-29T00:10:58.001Z,13.68
2023-04-29T00:15:59.481Z,12.63
2023-04-29T00:21:00.926Z,13.40
2023-04-29T00:26:02.720Z,15.60
2023-04-29T00:31:04.222Z,14.45
2023-04-29T00:36:05.817Z,19.02
2023-04-29T00:41:07.359Z,14.55
2023-04-29T00:46:09.896Z,18.20
2023-04-29T00:51:11.692Z,17.23
2023-04-29T00:56:14.985Z,18.25
2023-04-29T01:01:17.251Z,15.60
2023-04-29T01:06:59.258Z,16.73
2023-04-29T01:12:16.317Z,16.20
2023-04-29T01:17:23.764Z,16.40
2023-04-29T01:22:25.801Z,16.30
2023-04-29T01:27:35.854Z,16.67
2023-04-29T01:32:54.154Z,18.50
2023-04-29T01:38:13.983Z,18.47
2023-04-29T01:43:16.030Z,18.17
2023-04-29T01:48:18.245Z,19.33
2023-04-29T01:53:19.753Z,16.70
2023-04-29T01:58:21.228Z,18.77
2023-04-29T02:03:22.895Z,21.63
2023-04-29T02:08:24.569Z,18.42
2023-04-29T02:13:26.752Z,20.50
2023-04-29T02:18:28.221Z,19.70
2023-04-29T02:23:30.290Z,18.65
2023-04-29T02:28:32.328Z,21.40
2023-04-29T02:33:34.057Z,17.50
2023-04-29T02:38:35.465Z,17.77
2023-04-29T02:43:36.884Z,15.88
2023-04-29T02:48:38.455Z,14.00
2023-04-29T02:53:40.086Z,19.83
2023-04-29T02:58:42.310Z,15.02
2023-04-29T03:03:43.869Z,15.13
2023-04-29T03:08:45.612Z,15.68
2023-04-29T03:13:47.550Z,15.20
2023-04-29T03:18:49.662Z,13.27
2023-04-29T03:23:51.117Z,16.00
2023-04-29T03:28:52.597Z,18.33
2023-04-29T03:33:54.081Z,13.95
2023-04-29T03:38:55.550Z,14.02
2023-04-29T03:44:00.720Z,14.75
2023-04-29T03:49:02.273Z,13.82
2023-04-29T03:54:03.799Z,14.27
2023-04-29T03:59:05.320Z,14.88
2023-04-29T04:04:06.989Z,14.40
2023-04-29T04:09:08.584Z,14.68
2023-04-29T04:14:10.402Z,12.30
2023-04-29T04:19:11.810Z,12.80
2023-04-29T04:24:13.241Z,14.05
2023-04-29T04:29:14.802Z,13.15
2023-04-29T04:34:16.213Z,15.80
2023-04-29T04:39:17.618Z,15.13
2023-04-29T04:44:19.027Z,12.73
2023-04-29T04:49:20.601Z,15.60
2023-04-29T04:54:22.024Z,11.98
2023-04-29T04:59:23.502Z,14.13
2023-04-29T05:04:25.216Z,13.32
2023-04-29T05:09:26.943Z,11.45
2023-04-29T05:14:28.622Z,15.02
2023-04-29T05:19:30.073Z,13.98
2023-04-29T05:24:31.699Z,12.73
2023-04-29T05:29:33.112Z,13.98
2023-04-29T05:34:34.529Z,15.68
2023-04-29T05:39:35.979Z,14.20
2023-04-29T05:44:37.448Z,13.95
2023-04-29T05:49:39.383Z,13.70
2023-04-29T05:54:41.588Z,14.70
2023-04-29T05:59:43.044Z,13.73
2023-04-29T06:04:44.607Z,13.02
2023-04-29T06:09:46.207Z,14.60
2023-04-29T06:14:47.638Z,15.23
2023-04-29T06:19:49.054Z,13.38
2023-04-29T06:24:50.469Z,15.50
2023-04-29T06:29:52.123Z,12.77
2023-04-29T06:34:53.664Z,15.32
2023-04-29T06:39:55.272Z,13.50
2023-04-29T06:44:56.789Z,14.40
2023-04-29T06:49:58.207Z,14.02
2023-04-29T06:55:00.027Z,14.52
2023-04-29T07:00:01.564Z,14.60
2023-04-29T07:05:03.041Z,16.00
2023-04-29T07:10:04.891Z,15.65
2023-04-29T07:15:06.941Z,13.70
2023-04-29T07:20:08.972Z,15.95
2023-04-29T07:25:11.143Z,14.18
2023-04-29T07:30:12.909Z,13.35
2023-04-29T07:35:14.474Z,14.05
2023-04-29T07:40:15.947Z,17.90
2023-04-29T07:45:17.566Z,15.57
2023-04-29T07:50:19.006Z,16.17
2023-04-29T07:55:20.496Z,14.88
2023-04-29T08:00:22.654Z,14.93
2023-04-29T08:05:24.646Z,14.13
2023-04-29T08:10:27.284Z,15.10
2023-04-29T08:15:28.728Z,11.75
2023-04-29T08:20:30.486Z,12.60
2023-04-29T08:25:31.892Z,11.48
2023-04-29T08:30:33.824Z,9.60
2023-04-29T08:35:37.673Z,8.50
2023-04-29T08:40:44.127Z,10.18
2023-04-29T08:45:48.529Z,9.20
2023-04-29T08:50:49.971Z,8.23
2023-04-29T08:55:53.334Z,10.15
2023-04-29T09:00:54.858Z,10.43
2023-04-29T09:06:00.755Z,12.88
2023-04-29T09:11:02.392Z,12.30
2023-04-29T09:16:04.229Z,17.50
2023-04-29T09:21:15.758Z,14.70
2023-04-29T09:26:17.472Z,15.15
2023-04-29T09:31:27.818Z,15.98
2023-04-29T09:36:48.511Z,14.57
2023-04-29T09:41:52.944Z,17.15
2023-04-29T09:47:04.639Z,16.83
2023-04-29T09:52:14.377Z,15.02
2023-04-29T09:57:15.931Z,13.63
2023-04-29T10:02:18.850Z,15.07
2023-04-29T10:07:21.532Z,11.27
2023-04-29T10:12:26.303Z,12.02
2023-04-29T10:18:09.450Z,12.85
2023-04-29T10:23:11.244Z,8.95
2023-04-29T10:28:16.720Z,8.13
2023-04-29T10:33:19.246Z,7.40
2023-04-29T10:38:29.677Z,38.38
2023-04-29T10:43:31.968Z,9.70
2023-04-29T10:48:33.442Z,5.63
2023-04-29T10:53:35.681Z,5.93
2023-04-29T10:58:39.408Z,6.35
2023-04-29T11:03:50.860Z,5.72
2023-04-29T11:09:03.724Z,5.55
2023-04-29T11:14:05.432Z,6.70
2023-04-29T11:19:08.463Z,5.47
2023-04-29T11:24:09.918Z,4.82
2023-04-29T11:29:11.494Z,5.38
2023-04-29T11:34:13.002Z,5.18
2023-04-29T11:39:16.913Z,6.80
2023-04-29T11:44:22.624Z,4.32
2023-04-29T11:49:30.486Z,4.07
2023-04-29T11:54:32.678Z,3.10
2023-04-29T11:59:34.143Z,3.30
2023-04-29T12:04:45.491Z,4.13
2023-04-29T12:09:47.342Z,5.25
2023-04-29T12:14:49.687Z,4.68
2023-04-29T12:19:51.323Z,4.20
2023-04-29T12:24:54.485Z,5.03
2023-04-29T12:29:57.445Z,5.88
2023-04-29T12:34:58.906Z,6.25
2023-04-29T12:40:00.371Z,7.22
2023-04-29T12:45:01.943Z,6.65
2023-04-29T12:50:03.729Z,7.47
2023-04-29T12:55:06.544Z,5.05
2023-04-29T13:00:08.672Z,3.05
2023-04-29T13:05:12.775Z,2.90
2023-04-29T13:10:14.393Z,3.22
2023-04-29T13:15:15.909Z,4.70
2023-04-29T13:20:17.457Z,2.60
2023-04-29T13:25:18.983Z,2.83
2023-04-29T13:30:20.455Z,4.13
2023-04-29T13:35:21.922Z,3.58
2023-04-29T13:40:27.482Z,3.53
2023-04-29T13:45:29.561Z,3.72
2023-04-29T14:01:10.430Z,4.88
2023-04-29T14:06:01.304Z,2.53
2023-04-29T14:11:02.736Z,3.17
2023-04-29T14:16:06.625Z,3.13
2023-04-29T14:21:08.195Z,2.83
2023-04-29T14:26:26.573Z,4.32
2023-04-29T14:31:31.423Z,3.05
2023-04-29T14:36:33.126Z,3.30
2023-04-29T14:41:34.578Z,4.10
2023-04-29T14:46:36.067Z,3.53
2023-04-29T14:51:37.499Z,4.20
2023-04-29T14:56:38.925Z,5.00
2023-04-29T15:01:40.538Z,4.63
2023-04-29T15:06:42.053Z,5.10
2023-04-29T15:11:43.573Z,7.07
2023-04-29T15:16:45.078Z,7.18
2023-04-29T15:21:46.557Z,6.13
2023-04-29T15:26:48.342Z,5.90
2023-04-29T15:31:49.878Z,3.08
2023-04-29T15:36:51.445Z,2.20
2023-04-29T15:41:53.904Z,3.20
2023-04-29T15:46:55.366Z,4.47
2023-04-29T15:51:56.822Z,4.45
2023-04-29T15:56:58.236Z,6.63
2023-04-29T16:01:59.694Z,6.18
2023-04-29T16:07:01.582Z,8.27
2023-04-29T16:12:03.174Z,7.28
2023-04-29T16:17:05.681Z,8.32
2023-04-29T16:22:07.429Z,9.80
2023-04-29T16:27:08.851Z,7.85
2023-04-29T16:32:10.271Z,7.40
2023-04-29T16:37:12.676Z,7.97
2023-04-29T16:42:14.282Z,7.50
2023-04-29T16:47:15.772Z,6.90
2023-04-29T16:52:17.742Z,8.45
2023-04-29T16:57:19.268Z,10.00
2023-04-29T17:02:21.097Z,7.88
2023-04-29T17:07:22.701Z,8.02
2023-04-29T17:12:24.120Z,8.88
2023-04-29T17:17:25.626Z,7.32
2023-04-29T17:22:27.086Z,5.03
2023-04-29T17:27:28.502Z,4.50
2023-04-29T17:32:30.150Z,5.47
2023-04-29T17:37:31.610Z,4.50
2023-04-29T17:42:33.069Z,4.85
2023-04-29T17:47:35.458Z,4.47
2023-04-29T17:52:37.049Z,6.03
2023-04-29T17:57:40.235Z,6.68
2023-04-29T18:02:42.228Z,5.53
2023-04-29T18:07:43.671Z,7.32
2023-04-29T18:12:45.087Z,9.00
2023-04-29T18:17:46.542Z,6.15
2023-04-29T18:22:48.761Z,6.82
2023-04-29T18:27:51.473Z,10.35
2023-04-29T18:32:53.054Z,14.07
2023-04-29T18:37:54.797Z,13.13
2023-04-29T18:42:56.197Z,14.75
2023-04-29T18:47:57.652Z,18.77
2023-04-29T18:52:59.117Z,17.08
2023-04-29T18:58:00.622Z,17.38
2023-04-29T19:03:02.106Z,18.13
2023-04-29T19:08:03.666Z,23.92
2023-04-29T19:13:05.108Z,23.98
2023-04-29T19:18:07.061Z,25.05
2023-04-29T19:23:08.569Z,24.20
2023-04-29T19:28:10.154Z,21.98
2023-04-29T19:33:11.604Z,23.98
2023-04-29T19:38:13.050Z,25.67
2023-04-29T19:43:14.545Z,28.63
2023-04-29T19:48:16.371Z,28.02
2023-04-29T19:53:18.005Z,32.25
2023-04-29T19:58:19.846Z,32.67
2023-04-29T20:03:21.701Z,36.35
2023-04-29T20:08:23.134Z,36.13
2023-04-29T20:13:24.609Z,33.80
2023-04-29T20:18:26.367Z,35.30
2023-04-29T20:23:27.776Z,38.25
2023-04-29T20:28:29.274Z,37.60
2023-04-29T20:33:30.912Z,32.45
2023-04-29T20:38:36.166Z,34.15
2023-04-29T20:43:37.728Z,36.10
2023-04-29T20:48:39.168Z,34.28
2023-04-29T20:53:40.691Z,34.05
2023-04-29T20:58:42.118Z,30.85
2023-04-29T21:03:43.522Z,30.92
2023-04-29T21:08:45.035Z,29.92
2023-04-29T21:13:50.108Z,31.58
2023-04-29T21:18:51.574Z,31.35
2023-04-29T21:23:52.996Z,31.10
2023-04-29T21:28:54.734Z,31.92
2023-04-29T21:33:56.167Z,25.90
2023-04-29T21:38:57.647Z,26.73
2023-04-29T21:44:00.941Z,23.33
2023-04-29T21:49:03.979Z,22.83
2023-04-29T21:54:08.427Z,25.88
2023-04-29T21:59:09.971Z,22.38
2023-04-29T22:04:11.665Z,19.38
2023-04-29T22:09:13.098Z,23.83
2023-04-29T22:14:14.532Z,18.08
2023-04-29T22:19:15.978Z,19.85
2023-04-29T22:24:17.427Z,18.80
2023-04-29T22:29:20.070Z,20.65
2023-04-29T22:34:21.484Z,17.80
2023-04-29T22:39:22.972Z,15.73
2023-04-29T22:44:24.475Z,16.45
2023-04-29T22:49:26.011Z,17.75
2023-04-29T22:54:28.765Z,18.33
2023-04-29T22:59:30.178Z,16.58
2023-04-29T23:04:33.306Z,15.05
2023-04-29T23:09:34.771Z,13.65
2023-04-29T23:14:36.176Z,15.05
2023-04-29T23:19:37.670Z,17.88
2023-04-29T23:24:40.196Z,14.48
2023-04-29T23:29:41.759Z,15.02
2023-04-29T23:34:43.232Z,17.35
2023-04-29T23:39:44.707Z,20.27
2023-04-29T23:44:46.181Z,16.55
2023-04-29T23:49:47.623Z,15.27
2023-04-29T23:54:49.185Z,17.35
2023-04-29T23:59:50.710Z,16.38
